Huvudsida
METAR-TAF:

METAR-TAF

Flygplatser :

Forūdgāh-e Beyn ol Melalī-ye Tabrīz

Tabriz, Iran

latitud: 38-05N, longitud: 046-17E, höjd: 1367 m

Aktuellt väderrapport

Denna rapport gjordes för 10 minuter sedan, klockan 13:00 UTC
Vind 4 kt från väst/sydväst
Temperatur 14°C
Fuktighet 24%
Tryck 1026 hPa
Sikt: 8000 m

METAR: OITT 121300Z 25004KT 8000 NSC 14/M06 Q1025 A3029 NOSIG

Tid: 16:40 (13:10 UTC)

Väderprognos

Denna rapport gjordes för 1 timme och 50 minuter sedan, klockan 11:20 UTC
Prognos gäller från 12 kl. 12 UTC till 13 kl. 18 UTC
Vind 6 kt från ost/nordost
Sikt: 7000 m

TAF: OITT 121120Z 1212/1318 07006KT 7000 NSC

Aktuella väderrapporter och prognoser från 4000 flygplatser (METAR- och TAF-rapporter).

De tillgängliga stationerna syns som gula och röda prickar på kartan.

För musen över prickarna för att se namnen på stationerna.

Klicka sedan för att få väderrapporter och prognoser.

För att ändra kartan: Klicka på de gröna knapparna med ett svart kors på för att zooma in; den gröna knappen med ett streck på för att zooma ut; eller på de gröna pilarna för angränsande kartor.


METAR-TAF: